Time;durP1;ratioP1;P1;durP2;ratioP2;P2;SDS_P1;SDS_P2;PMS_P1;PMS_P2;Temp;Humidity;BMP_temperature;BMP_pressure;BME280_temperature;BME280_humidity;BME280_pressure;Samples;Min_cycle;Max_cycle;Signal;HPM_P1;HPM_P2
2022/09/25 00:01:01;;;;;;;7.10;6.70;;;;;;;21.51;44.69;100425.25;6155704;23;20025;-75
2022/09/25 00:03:29;;;;;;;7.00;6.50;;;;;;;21.63;44.84;100421.53;6156111;23;20025;-74
2022/09/25 00:06:01;;;;;;;7.97;7.57;;;;;;;21.72;44.22;100422.22;6155168;23;20025;-74
2022/09/25 00:08:28;;;;;;;7.32;6.82;;;;;;;21.57;43.83;100425.81;6155486;23;20025;-75
2022/09/25 00:10:55;;;;;;;7.07;6.68;;;;;;;21.43;43.89;100418.47;6155616;23;20021;-77
2022/09/25 00:13:22;;;;;;;7.20;6.80;;;;;;;21.27;44.00;100423.22;6156030;23;20026;-77
2022/09/25 00:15:53;;;;;;;7.20;6.82;;;;;;;21.32;45.31;100410.78;6155249;23;20032;-75
2022/09/25 00:21:11;;;;;;;8.05;7.55;;;;;;;21.06;44.48;100404.31;6155079;23;20029;-74
2022/09/25 00:23:39;;;;;;;9.00;8.40;;;;;;;20.83;44.52;100405.94;6155264;23;20102;-74
2022/09/25 00:26:07;;;;;;;8.70;8.10;;;;;;;20.57;44.33;100387.22;6154487;23;20037;-74
2022/09/25 00:28:38;;;;;;;8.02;7.43;;;;;;;20.61;44.11;100400.72;6154988;23;20026;-76
2022/09/25 00:31:06;;;;;;;8.10;7.60;;;;;;;20.52;44.91;100407.31;6155580;23;20021;-77
2022/09/25 00:33:34;;;;;;;8.52;8.02;;;;;;;20.48;44.77;100412.00;6154664;23;20412;-77
2022/09/25 00:36:07;;;;;;;9.23;8.63;;;;;;;20.27;44.72;100411.22;6155491;23;20360;-81
2022/09/25 00:38:35;;;;;;;10.10;9.05;;;;;;;20.08;44.89;100406.09;6153706;23;20032;-79
2022/09/25 00:41:05;;;;;;;8.55;7.95;;;;;;;19.87;44.95;100375.78;6154758;23;20028;-76
2022/09/25 00:43:43;;;;;;;7.65;7.20;;;;;;;19.99;45.13;100406.16;6179210;23;20021;-76
2022/09/25 00:46:32;;;;;;;10.05;8.60;;;;;;;19.74;45.33;100410.06;6154241;23;20084;-71
2022/09/25 00:49:21;;;;;;;8.47;7.87;;;;;;;19.49;45.41;100407.06;6154851;23;20101;-72
2022/09/25 00:51:56;;;;;;;9.07;8.48;;;;;;;19.17;45.77;100395.25;6178835;23;20069;-75
2022/09/25 00:54:30;;;;;;;9.98;9.38;;;;;;;19.00;46.09;100403.84;6155326;23;20032;-72
2022/09/25 00:57:02;;;;;;;8.77;8.23;;;;;;;18.94;46.22;100394.75;6178917;23;20456;-74
2022/09/25 00:59:34;;;;;;;8.88;8.38;;;;;;;19.06;46.68;100408.16;6156170;23;20032;-75
2022/09/25 01:02:01;;;;;;;7.85;7.35;;;;;;;19.32;46.69;100398.69;6153786;23;20026;-74
2022/09/25 01:04:31;;;;;;;7.97;7.40;;;;;;;19.64;46.36;100392.31;6153722;23;20021;-75
2022/09/25 01:06:58;;;;;;;;;;;;;;;19.39;46.43;100398.97;6153711;23;20053;-75
2022/09/25 01:09:26;;;;;;;9.40;8.68;;;;;;;19.38;46.11;100385.97;6154289;23;20332;-74
2022/09/25 01:11:54;;;;;;;8.50;8.00;;;;;;;19.44;46.31;100378.94;6150450;23;20022;-74
2022/09/25 01:14:21;;;;;;;9.27;8.45;;;;;;;19.54;45.93;100389.03;6155781;23;20439;-75
2022/09/25 01:17:06;;;;;;;9.60;8.68;;;;;;;19.35;45.95;100369.66;6154131;23;20472;-75
2022/09/25 01:19:47;;;;;;;7.93;7.47;;;;;;;19.52;46.13;100386.56;6155174;23;20658;-75
2022/09/25 01:22:53;;;;;;;9.52;8.88;;;;;;;19.47;46.40;100383.91;6155304;23;20396;-73
2022/09/25 01:25:38;;;;;;;10.15;9.35;;;;;;;19.80;46.20;100389.69;6103838;23;20026;-73
2022/09/25 01:28:49;;;;;;;9.30;8.60;;;;;;;19.49;46.03;100329.78;6153955;23;20021;-74
2022/09/25 01:31:51;;;;;;;8.48;7.90;;;;;;;19.61;46.62;100375.13;6126278;23;20353;-74
2022/09/25 01:34:27;;;;;;;8.82;8.32;;;;;;;19.51;46.07;100361.41;6150458;23;20789;-73
2022/09/25 01:37:23;;;;;;;8.57;7.88;;;;;;;19.35;47.02;100319.56;6155224;23;20036;-74
2022/09/25 01:40:03;;;;;;;8.88;8.18;;;;;;;19.62;46.32;100340.81;6154715;23;20059;-74
2022/09/25 01:42:56;;;;;;;9.50;8.70;;;;;;;19.75;45.98;100369.22;6154880;23;20491;-73
2022/09/25 01:45:31;;;;;;;9.20;8.43;;;;;;;19.46;46.21;100361.63;6144774;23;20028;-73
2022/09/25 01:48:01;;;;;;;9.43;8.82;;;;;;;19.38;46.40;100352.00;6152935;23;20025;-74
2022/09/25 01:51:08;;;;;;;8.82;8.23;;;;;;;19.23;46.23;100349.78;6152866;23;20025;-73
2022/09/25 01:53:44;;;;;;;9.05;8.45;;;;;;;19.14;46.48;100359.19;6132310;23;20021;-73
2022/09/25 01:56:19;;;;;;;9.30;8.70;;;;;;;18.79;46.84;100354.88;6154503;23;20032;-74
2022/09/25 01:58:57;;;;;;;9.38;8.73;;;;;;;18.39;46.91;100318.41;6153813;23;20460;-74
2022/09/25 02:01:37;;;;;;;9.25;8.65;;;;;;;18.30;47.49;100334.63;6154684;23;20025;-73
2022/09/25 02:04:09;;;;;;;;;;;;;;;18.42;48.00;100363.81;6155490;23;20025;-73
2022/09/25 02:06:39;;;;;;;8.63;8.00;;;;;;;18.77;47.71;100360.03;6154282;23;19921;-74
2022/09/25 02:09:12;;;;;;;9.25;8.63;;;;;;;18.92;47.42;100334.00;6154603;23;20396;-74
2022/09/25 02:11:46;;;;;;;8.45;7.93;;;;;;;19.08;46.88;100345.56;6154262;23;20029;-75
2022/09/25 02:14:19;;;;;;;7.50;7.10;;;;;;;19.12;47.11;100349.38;6152534;23;20037;-77
2022/09/25 02:16:51;;;;;;;8.05;7.55;;;;;;;18.86;46.82;100329.72;6153878;23;20099;-76
2022/09/25 02:22:27;;;;;;;8.35;7.88;;;;;;;18.68;47.23;100343.09;6155015;23;20456;-77
2022/09/25 02:25:05;;;;;;;9.60;8.60;;;;;;;18.75;47.01;100343.41;6154488;23;20030;-77
2022/09/25 02:27:33;;;;;;;8.45;7.50;;;;;;;18.82;47.20;100360.69;6153133;23;20453;-76
2022/09/25 02:30:00;;;;;;;8.30;7.70;;;;;;;18.91;46.91;100357.81;6151666;23;20029;-76
2022/09/25 02:32:31;;;;;;;8.25;7.65;;;;;;;19.13;47.21;100351.00;6152394;23;20507;-76
2022/09/25 02:34:59;;;;;;;7.70;7.30;;;;;;;19.33;47.09;100343.72;6153479;23;20029;-77
2022/09/25 02:37:26;;;;;;;7.97;7.32;;;;;;;19.74;46.61;100342.06;6154114;23;20501;-77
2022/09/25 02:39:56;;;;;;;7.90;7.50;;;;;;;20.14;46.07;100350.84;6153916;23;20041;-78
2022/09/25 02:42:23;;;;;;;7.57;6.97;;;;;;;20.16;45.52;100353.31;6155986;23;20021;-78
2022/09/25 02:45:05;;;;;;;8.45;8.00;;;;;;;20.16;45.55;100339.13;6156779;23;20349;-77
2022/09/25 02:47:46;;;;;;;7.63;7.13;;;;;;;20.07;45.50;100342.91;6154974;23;20056;-77
2022/09/25 02:50:36;;;;;;;7.22;6.80;;;;;;;20.22;45.45;100341.41;6156537;23;20474;-76
2022/09/25 02:53:06;;;;;;;;;;;;;;;20.31;46.05;100327.13;6147927;23;20028;-77
2022/09/25 02:55:33;;;;;;;7.50;6.90;;;;;;;20.20;45.42;100337.25;6156266;23;19924;-76
2022/09/25 02:58:10;;;;;;;7.13;6.72;;;;;;;19.93;46.10;100311.22;6156602;23;20025;-77
2022/09/25 03:00:39;;;;;;;8.77;8.07;;;;;;;19.84;45.71;100293.47;6156471;23;20025;-77
2022/09/25 03:03:11;;;;;;;7.67;7.07;;;;;;;19.62;45.62;100289.84;6153874;23;20029;-76
2022/09/25 03:05:38;;;;;;;7.38;6.97;;;;;;;19.70;46.03;100324.13;6155209;23;20236;-77
2022/09/25 03:10:51;;;;;;;8.20;7.60;;;;;;;19.28;46.10;100312.75;6155255;23;20461;-75
2022/09/25 03:13:25;;;;;;;9.77;9.10;;;;;;;19.14;46.18;100307.38;6154521;23;20469;-75
2022/09/25 03:15:58;;;;;;;8.82;8.23;;;;;;;19.04;46.01;100313.44;6155201;23;20030;-75
2022/09/25 03:18:27;;;;;;;7.63;7.22;;;;;;;18.70;46.27;100299.16;6154620;23;20029;-74
2022/09/25 03:20:54;;;;;;;8.10;7.30;;;;;;;18.52;46.77;100316.53;6155642;23;20457;-75
2022/09/25 03:23:21;;;;;;;7.93;7.38;;;;;;;18.25;47.29;100310.16;6179343;23;20021;-83
2022/09/25 03:25:47;;;;;;;7.93;7.50;;;;;;;18.01;47.45;100293.78;6157763;23;20096;-83
2022/09/25 03:28:16;;;;;;;8.68;8.00;;;;;;;17.97;47.62;100315.41;6159010;23;20131;-83
2022/09/25 03:30:43;;;;;;;7.95;7.32;;;;;;;18.07;48.01;100303.75;6167310;23;20100;-93
2022/09/25 03:33:11;;;;;;;8.63;8.02;;;;;;;18.15;47.60;100304.88;6168248;23;20108;-78
2022/09/25 03:35:38;;;;;;;8.10;7.60;;;;;;;18.32;47.47;100312.47;6154834;23;20088;-78
2022/09/25 03:38:09;;;;;;;8.00;7.50;;;;;;;18.47;47.70;100317.56;6155825;23;20465;-78
2022/09/25 03:40:36;;;;;;;8.90;7.38;;;;;;;18.49;47.33;100309.56;6155113;23;20064;-74
2022/09/25 03:43:03;;;;;;;8.30;7.80;;;;;;;18.31;47.18;100274.06;6155563;23;20293;-75
2022/09/25 03:45:28;;;;;;;8.50;7.90;;;;;;;18.34;46.82;100291.19;6155987;23;20452;-75
2022/09/25 03:47:55;;;;;;;8.32;7.50;;;;;;;18.24;46.99;100309.34;6155458;23;20029;-75
2022/09/25 03:50:22;;;;;;;7.53;7.13;;;;;;;18.09;47.13;100303.44;6156076;23;20036;-74
2022/09/25 03:52:49;;;;;;;7.45;6.97;;;;;;;18.17;47.45;100317.50;6154090;23;20023;-75
2022/09/25 03:55:15;;;;;;;8.50;7.78;;;;;;;18.16;47.64;100315.03;6155887;23;20026;-75
2022/09/25 03:57:42;;;;;;;10.30;9.50;;;;;;;18.20;47.49;100308.38;6156501;23;20341;-75
2022/09/25 04:00:10;;;;;;;8.40;7.65;;;;;;;18.04;47.69;100281.81;6155964;23;20476;-75
2022/09/25 04:02:36;;;;;;;9.15;7.30;;;;;;;17.98;47.51;100300.13;6154123;23;20025;-73
2022/09/25 04:05:04;;;;;;;8.23;7.55;;;;;;;17.68;48.17;100280.22;6154857;23;20333;-79
2022/09/25 04:07:31;;;;;;;8.32;7.80;;;;;;;17.68;48.58;100304.81;6178659;23;20036;-80
2022/09/25 04:09:58;;;;;;;8.32;7.75;;;;;;;17.83;48.71;100309.97;6156385;23;20097;-80
2022/09/25 04:12:25;;;;;;;8.13;7.60;;;;;;;17.86;48.17;100297.16;6154979;23;20024;-80
2022/09/25 04:14:52;;;;;;;9.38;8.60;;;;;;;17.73;48.13;100277.22;6156609;23;20369;-80
2022/09/25 04:17:20;;;;;;;8.18;7.68;;;;;;;17.77;48.47;100283.88;6156061;23;20032;-80
2022/09/25 04:19:47;;;;;;;8.00;7.50;;;;;;;17.68;48.63;100287.88;6155787;23;20484;-79
2022/09/25 04:22:13;;;;;;;12.52;11.65;;;;;;;17.82;48.34;100301.84;6155920;23;20021;-77
2022/09/25 04:24:49;;;;;;;8.27;7.78;;;;;;;17.79;48.24;100302.50;6154411;23;20025;-77
2022/09/25 04:27:19;;;;;;;8.10;7.57;;;;;;;17.77;48.21;100298.00;6153547;23;20026;-75
2022/09/25 04:29:46;;;;;;;7.30;6.70;;;;;;;17.50;48.65;100272.94;6154227;23;20026;-75
2022/09/25 04:35:01;;;;;;;9.85;9.23;;;;;;;17.51;48.80;100298.03;6154732;23;20100;-75
2022/09/25 04:37:27;;;;;;;9.38;8.55;;;;;;;17.28;48.86;100237.28;6155557;23;20028;-76
2022/09/25 04:39:56;;;;;;;9.15;7.65;;;;;;;17.74;48.39;100284.53;6154369;23;20405;-74
2022/09/25 04:42:24;;;;;;;8.13;7.43;;;;;;;17.75;48.72;100288.19;6153443;23;20027;-72
2022/09/25 04:44:53;;;;;;;7.75;7.32;;;;;;;17.86;48.40;100271.75;6154549;23;20022;-70
2022/09/25 04:47:28;;;;;;;8.10;7.43;;;;;;;18.07;48.23;100286.78;6153354;23;20022;-71
2022/09/25 04:49:56;;;;;;;9.38;7.45;;;;;;;18.09;48.41;100273.16;6152999;23;20022;-72
2022/09/25 04:52:22;;;;;;;8.15;7.63;;;;;;;18.12;48.18;100266.00;6155253;23;20018;-72
2022/09/25 04:54:49;;;;;;;8.23;7.50;;;;;;;18.15;48.08;100285.09;6155653;23;20037;-72
2022/09/25 04:57:19;;;;;;;8.60;7.93;;;;;;;17.94;47.89;100276.53;6155343;23;20044;-72
2022/09/25 05:00:06;;;;;;;7.60;7.10;;;;;;;17.66;48.54;100279.72;6155165;23;20519;-72
2022/09/25 05:02:33;;;;;;;8.23;7.63;;;;;;;17.39;49.11;100278.09;6154470;23;20022;-72
2022/09/25 05:05:00;;;;;;;8.65;7.93;;;;;;;17.18;48.91;100260.19;6177778;23;20025;-74
2022/09/25 05:07:27;;;;;;;9.13;8.18;;;;;;;17.12;49.27;100278.44;6154643;23;20021;-73
2022/09/25 05:09:54;;;;;;;8.52;8.00;;;;;;;16.95;49.57;100273.59;6178415;23;20025;-72
2022/09/25 05:12:21;;;;;;;8.40;7.78;;;;;;;16.92;49.58;100288.38;6177708;23;20032;-72
2022/09/25 05:14:48;;;;;;;8.60;8.00;;;;;;;16.49;49.85;100243.97;6153354;23;20021;-72
2022/09/25 05:17:15;;;;;;;8.27;7.57;;;;;;;16.56;50.14;100255.59;6154898;23;20140;-73
2022/09/25 05:19:42;;;;;;;8.77;8.10;;;;;;;16.28;50.23;100233.31;6153668;23;20025;-73
2022/09/25 05:22:09;;;;;;;8.23;7.72;;;;;;;16.65;50.28;100304.38;6154384;23;20026;-73
2022/09/25 05:24:37;;;;;;;8.40;7.80;;;;;;;16.54;49.86;100291.72;6154976;23;20389;-73
2022/09/25 05:27:08;;;;;;;8.38;7.88;;;;;;;16.58;50.03;100295.56;6154246;23;20026;-76
2022/09/25 05:29:34;;;;;;;7.80;7.40;;;;;;;16.38;50.54;100282.09;6154654;23;20017;-75
2022/09/25 05:32:01;;;;;;;9.07;8.30;;;;;;;16.37;50.70;100306.59;6155446;23;20027;-75
2022/09/25 05:34:28;;;;;;;8.38;7.88;;;;;;;16.19;50.95;100283.16;6153020;23;20031;-75
2022/09/25 05:36:55;;;;;;;8.60;8.00;;;;;;;16.25;50.88;100295.13;6154474;23;20469;-75
2022/09/25 05:39:22;;;;;;;9.60;8.65;;;;;;;16.23;51.19;100289.78;6153620;23;20022;-77
2022/09/25 05:41:48;;;;;;;8.63;8.05;;;;;;;16.19;51.10;100285.16;6154784;23;20021;-77
2022/09/25 05:44:15;;;;;;;8.32;7.82;;;;;;;16.27;51.03;100299.28;6156432;23;20024;-79
2022/09/25 05:46:42;;;;;;;9.02;8.50;;;;;;;16.10;51.10;100287.91;6157056;23;20033;-78
2022/09/25 05:49:09;;;;;;;8.50;7.93;;;;;;;16.10;51.36;100287.91;6157717;23;20025;-80
2022/09/25 05:51:36;;;;;;;8.77;8.10;;;;;;;16.05;51.60;100290.88;6180632;23;20472;-78
2022/09/25 05:54:03;;;;;;;8.43;7.82;;;;;;;16.20;51.64;100301.72;6161677;23;20480;-81
2022/09/25 05:56:29;;;;;;;8.80;8.13;;;;;;;16.24;51.91;100285.84;6169444;23;20025;-83
2022/09/25 05:58:57;;;;;;;8.90;8.37;;;;;;;16.24;51.54;100280.22;6168097;23;20364;-75
2022/09/25 06:01:24;;;;;;;8.77;8.23;;;;;;;16.12;51.32;100243.34;6155385;23;20029;-75
2022/09/25 06:03:52;;;;;;;9.40;8.70;;;;;;;16.41;51.36;100284.22;6177217;23;20025;-78
2022/09/25 06:06:18;;;;;;;10.00;9.20;;;;;;;16.35;51.56;100250.56;6155180;23;20025;-74
2022/09/25 06:08:53;;;;;;;8.48;7.90;;;;;;;16.80;50.88;100295.50;6154423;23;20337;-77
2022/09/25 06:11:21;;;;;;;8.60;8.10;;;;;;;16.73;50.81;100297.94;6154737;23;20096;-74
2022/09/25 06:13:49;;;;;;;9.00;8.30;;;;;;;16.66;51.11;100291.94;6154250;23;20021;-74
2022/09/25 06:16:20;;;;;;;9.57;8.57;;;;;;;16.72;51.11;100313.19;6153004;23;20021;-73
2022/09/25 06:18:47;;;;;;;8.68;8.07;;;;;;;16.81;50.98;100293.50;6154558;23;20096;-76
2022/09/25 06:21:14;;;;;;;8.63;8.13;;;;;;;16.79;50.75;100293.00;6154245;23;20025;-73
2022/09/25 06:23:43;;;;;;;8.50;7.90;;;;;;;17.01;50.48;100301.31;6175098;23;20018;-77
2022/09/25 06:26:11;;;;;;;8.45;7.80;;;;;;;16.83;50.80;100248.88;6152646;23;20022;-77
2022/09/25 06:28:38;;;;;;;8.70;7.88;;;;;;;17.22;50.37;100293.03;6153658;23;20045;-76
2022/09/25 06:31:05;;;;;;;6.03;1.60;;;;;;;17.39;50.04;100297.03;6150684;23;20361;-76
2022/09/25 06:33:32;;;;;;;7.93;1.77;;;;;;;17.59;49.88;100304.81;6152459;23;20018;-76
2022/09/25 06:36:00;;;;;;;10.82;2.45;;;;;;;17.42;49.63;100310.47;6152509;23;20021;-77
2022/09/25 06:38:26;;;;;;;6.30;3.47;;;;;;;17.35;49.50;100304.50;6151034;23;20049;-78
2022/09/25 06:40:53;;;;;;;6.78;4.05;;;;;;;17.23;49.81;100311.66;6152073;23;20025;-78
2022/09/25 06:43:26;;;;;;;7.40;6.80;;;;;;;17.00;49.97;100282.75;6153237;23;20083;-78
2022/09/25 06:45:52;;;;;;;10.13;9.30;;;;;;;17.09;50.04;100302.47;6153172;23;20022;-78
2022/09/25 06:48:20;;;;;;;8.55;8.10;;;;;;;17.27;49.97;100303.34;6153076;23;20025;-79
2022/09/25 06:50:51;;;;;;;9.60;9.00;;;;;;;17.28;49.94;100280.44;6152542;23;20049;-78
2022/09/25 06:53:19;;;;;;;9.25;8.70;;;;;;;17.51;49.44;100314.97;6152749;23;20022;-78
2022/09/25 06:55:46;;;;;;;9.50;8.80;;;;;;;17.61;49.66;100316.63;6152300;23;20026;-78
2022/09/25 06:58:16;;;;;;;7.55;3.33;;;;;;;17.98;49.10;100300.13;6150949;23;20029;-78
2022/09/25 07:00:47;;;;;;;3.22;1.45;;;;;;;18.57;48.46;100303.06;6150207;23;20116;-78
2022/09/25 07:06:01;;;;;;;3.50;1.70;;;;;;;19.00;47.60;100303.97;6151467;23;20021;-78
2022/09/25 07:08:28;;;;;;;3.75;2.10;;;;;;;18.97;47.58;100302.66;6152593;23;20342;-78
2022/09/25 07:10:57;;;;;;;2.90;1.38;;;;;;;19.01;47.76;100305.63;6152346;23;20032;-78
2022/09/25 07:13:27;;;;;;;3.42;1.75;;;;;;;19.13;47.12;100309.38;6149271;23;20026;-78
2022/09/25 07:15:59;;;;;;;3.38;1.90;;;;;;;18.98;47.62;100293.03;6151706;23;20022;-78
2022/09/25 07:18:27;;;;;;;3.13;1.63;;;;;;;19.10;47.11;100289.44;6151989;23;20021;-78
2022/09/25 07:21:09;;;;;;;24.27;9.40;;;;;;;19.37;47.10;100285.22;6151396;23;20025;-78
2022/09/25 07:23:37;;;;;;;7.82;4.75;;;;;;;19.64;46.61;100298.00;6173592;23;20021;-78
2022/09/25 07:26:21;;;;;;;6.68;3.45;;;;;;;19.62;46.29;100291.81;6152346;23;20025;-80
2022/09/25 07:28:54;;;;;;;8.00;3.45;;;;;;;19.79;46.18;100305.00;6152053;23;20418;-74
2022/09/25 07:31:23;;;;;;;4.70;2.95;;;;;;;19.85;46.05;100295.94;6151361;23;20028;-77
2022/09/25 07:33:50;;;;;;;8.35;2.35;;;;;;;20.16;46.01;100307.94;6151135;23;20465;-77
2022/09/25 07:36:17;;;;;;;20.67;10.68;;;;;;;20.41;45.75;100297.47;6152845;23;20356;-77
2022/09/25 07:38:49;;;;;;;27.55;15.30;;;;;;;20.68;45.44;100307.31;6153146;23;20021;-77
2022/09/25 07:41:17;;;;;;;6.35;3.10;;;;;;;21.00;45.05;100320.56;6151060;23;20029;-77
2022/09/25 07:43:44;;;;;;;6.45;3.35;;;;;;;21.12;44.65;100288.47;6152695;23;20022;-77
2022/09/25 07:46:11;;;;;;;4.18;2.75;;;;;;;21.44;44.37;100306.53;6151276;23;20036;-76
2022/09/25 07:48:38;;;;;;;7.88;3.60;;;;;;;21.68;43.93;100291.41;6151850;23;20489;-77
2022/09/25 07:51:10;;;;;;;8.75;4.88;;;;;;;22.10;43.54;100301.47;6152071;23;20096;-78
2022/09/25 07:53:38;;;;;;;5.38;3.10;;;;;;;22.11;43.13;100291.75;6151161;23;20025;-77
2022/09/25 07:56:05;;;;;;;8.32;4.40;;;;;;;22.32;43.25;100295.19;6154109;23;20025;-76
2022/09/25 07:58:34;;;;;;;6.78;2.25;;;;;;;22.69;42.82;100303.44;6152495;23;20381;-76
2022/09/25 08:01:04;;;;;;;6.50;2.30;;;;;;;22.78;42.18;100301.25;6151388;23;20071;-75
2022/09/25 08:03:31;;;;;;;1.75;1.20;;;;;;;22.71;41.85;100264.88;6153438;23;20028;-76
2022/09/25 08:06:00;;;;;;;4.95;2.10;;;;;;;23.07;41.86;100287.69;6150143;23;20025;-76
2022/09/25 08:08:28;;;;;;;3.45;1.85;;;;;;;23.19;41.32;100281.88;6150976;23;20465;-76
2022/09/25 08:11:05;;;;;;;6.25;5.63;;;;;;;23.72;41.01;100302.16;6152902;23;20057;-76
2022/09/25 08:13:33;;;;;;;10.50;9.85;;;;;;;24.13;40.60;100302.56;6151593;23;20381;-76
2022/09/25 08:16:06;;;;;;;10.52;9.85;;;;;;;24.28;39.92;100304.50;6151983;23;20021;-76
2022/09/25 08:18:33;;;;;;;11.02;9.13;;;;;;;24.34;39.63;100297.28;6153209;23;20026;-76
2022/09/25 08:21:04;;;;;;;11.25;10.25;;;;;;;24.80;39.37;100305.00;6152004;23;20032;-75
2022/09/25 08:23:31;;;;;;;16.85;9.60;;;;;;;25.04;38.79;100283.75;6151901;23;20018;-75
2022/09/25 08:25:58;;;;;;;13.82;12.38;;;;;;;25.15;38.52;100275.34;6150601;23;20515;-75
2022/09/25 08:28:25;;;;;;;10.80;9.85;;;;;;;25.62;37.74;100303.34;6152487;23;20021;-75
2022/09/25 08:30:53;;;;;;;10.10;9.50;;;;;;;26.06;37.25;100301.88;6151218;23;20029;-75
2022/09/25 08:33:20;;;;;;;10.30;9.50;;;;;;;26.40;36.60;100302.63;6152270;23;20029;-76
2022/09/25 08:36:00;;;;;;;10.20;9.50;;;;;;;26.91;36.13;100310.44;6153123;23;20043;-75
2022/09/25 08:38:31;;;;;;;9.57;8.98;;;;;;;27.28;35.22;100316.06;6153596;23;20448;-76
2022/09/25 08:41:12;;;;;;;10.93;10.30;;;;;;;27.58;34.78;100312.91;6152570;23;20212;-80
2022/09/25 08:43:54;;;;;;;2.60;1.77;;;;;;;27.90;34.26;100312.28;6152990;23;20386;-76
2022/09/25 08:49:25;;;;;;;4.25;2.28;;;;;;;28.47;33.72;100323.91;6153198;23;20035;-75
2022/09/25 08:51:59;;;;;;;5.07;2.22;;;;;;;28.71;33.21;100322.28;6149406;23;20025;-75
2022/09/25 08:54:30;;;;;;;3.13;1.77;;;;;;;28.83;32.48;100309.56;6151125;23;20033;-75
2022/09/25 08:57:10;;;;;;;2.60;1.60;;;;;;;29.05;32.05;100314.06;6152348;23;20029;-75
2022/09/25 08:59:41;;;;;;;3.08;1.38;;;;;;;29.12;31.53;100292.31;6152541;23;20484;-76
2022/09/25 09:02:23;;;;;;;3.25;1.05;;;;;;;29.40;31.71;100323.03;6151447;23;20461;-76
2022/09/25 09:04:54;;;;;;;1.50;1.30;;;;;;;29.64;30.86;100318.47;6152572;23;20479;-75
2022/09/25 09:07:45;;;;;;;2.50;1.52;;;;;;;29.87;30.85;100317.97;6154858;23;20030;-76
2022/09/25 09:10:40;;;;;;;1.13;1.02;;;;;;;30.08;30.86;100322.78;6153686;23;20104;-74
2022/09/25 09:13:16;;;;;;;3.38;1.40;;;;;;;30.33;30.43;100331.34;6150422;23;20017;-76
2022/09/25 09:15:51;;;;;;;1.88;1.20;;;;;;;30.24;29.81;100288.59;6150411;23;20026;-75
2022/09/25 09:18:44;;;;;;;3.05;1.42;;;;;;;30.71;29.42;100334.34;6151465;23;20025;-76
2022/09/25 09:21:32;;;;;;;2.70;1.20;;;;;;;30.86;29.30;100336.72;6148852;23;20025;-76
2022/09/25 09:24:15;;;;;;;3.00;2.17;;;;;;;31.07;29.07;100318.38;6151655;23;20464;-74
2022/09/25 09:27:05;;;;;;;2.60;1.48;;;;;;;31.18;28.58;100318.31;6149506;23;20033;-74
2022/09/25 09:30:15;;;;;;;1.80;1.38;;;;;;;31.18;28.63;100301.00;6152922;23;20021;-76
2022/09/25 09:32:58;;;;;;;1.95;0.82;;;;;;;31.24;28.22;100299.25;6120199;23;20025;-78
2022/09/25 09:35:43;;;;;;;4.82;1.50;;;;;;;31.37;28.40;100320.59;6152660;23;20352;-74
2022/09/25 09:38:13;;;;;;;2.25;1.17;;;;;;;31.48;27.85;100319.66;6153208;23;20032;-72
2022/09/25 09:40:47;;;;;;;2.60;1.13;;;;;;;31.51;27.44;100330.34;6151161;23;20025;-71
2022/09/25 09:43:33;;;;;;;1.83;1.27;;;;;;;31.57;27.03;100340.16;6151085;23;20076;-72
2022/09/25 09:46:14;;;;;;;1.33;0.93;;;;;;;31.62;26.53;100323.22;6153097;23;20021;-72
2022/09/25 09:48:50;;;;;;;2.10;1.00;;;;;;;31.74;26.92;100327.59;6175401;23;20400;-72
2022/09/25 09:51:29;;;;;;;1.48;1.00;;;;;;;31.69;26.83;100307.84;6152968;23;20049;-72
2022/09/25 09:53:59;;;;;;;;;;;;;;;31.84;28.47;100315.09;6151916;23;20457;-72
2022/09/25 09:56:34;;;;;;;1.33;1.15;;;;;;;32.06;26.70;100301.19;6153525;23;19924;-73
2022/09/25 09:59:13;;;;;;;1.13;0.70;;;;;;;32.12;26.70;100307.31;6152845;23;20022;-72
2022/09/25 10:01:43;;;;;;;2.60;1.40;;;;;;;32.43;26.58;100308.09;6153204;23;20036;-72
2022/09/25 10:04:18;;;;;;;2.63;1.30;;;;;;;32.69;25.60;100306.47;6152253;23;20521;-71
2022/09/25 10:07:03;;;;;;;1.58;1.27;;;;;;;32.65;26.21;100304.88;6152250;23;20029;-73
2022/09/25 10:09:31;;;;;;;3.22;1.30;;;;;;;32.73;25.37;100309.28;6152641;23;20025;-72
2022/09/25 10:12:24;;;;;;;1.13;0.75;;;;;;;32.59;25.10;100290.09;6151650;23;20473;-72
2022/09/25 10:14:51;;;;;;;3.50;1.13;;;;;;;32.40;25.09;100291.59;6153690;23;20628;-73
2022/09/25 10:17:22;;;;;;;1.38;1.00;;;;;;;32.20;25.42;100256.81;6148500;23;20029;-71
2022/09/25 10:20:13;;;;;;;1.00;1.00;;;;;;;32.36;24.97;100298.72;6151180;23;20021;-72
2022/09/25 10:22:45;;;;;;;1.15;0.90;;;;;;;32.32;25.05;100299.56;6152551;23;20026;-73
2022/09/25 10:25:12;;;;;;;2.85;1.30;;;;;;;32.30;24.91;100307.84;6151157;23;20029;-73
2022/09/25 10:27:48;;;;;;;1.48;1.17;;;;;;;32.26;25.14;100278.19;6152946;23;20477;-73
2022/09/25 10:30:19;;;;;;;1.50;1.40;;;;;;;32.15;24.74;100292.00;6152906;23;20025;-73
2022/09/25 10:33:05;;;;;;;1.90;1.25;;;;;;;32.36;24.61;100304.50;6152680;23;20464;-73
2022/09/25 10:35:38;;;;;;;1.15;1.05;;;;;;;32.58;24.45;100300.00;6151648;23;20032;-71
2022/09/25 10:38:21;;;;;;;2.45;1.70;;;;;;;32.63;24.47;100287.97;6152969;23;20030;-70
2022/09/25 10:41:10;;;;;;;3.30;1.65;;;;;;;32.72;24.67;100287.38;6151029;23;20025;-72
2022/09/25 10:43:55;;;;;;;3.75;1.42;;;;;;;32.76;24.42;100288.19;6151897;23;20022;-73
2022/09/25 10:52:13;;;;;;;4.35;1.40;;;;;;;33.48;23.92;100270.34;6120996;23;20022;-73
2022/09/25 10:54:41;;;;;;;1.40;1.10;;;;;;;33.62;23.69;100263.44;6151310;23;20029;-73
2022/09/25 10:57:16;;;;;;;5.40;2.83;;;;;;;33.83;23.40;100265.03;6151573;23;20049;-73
2022/09/25 10:59:50;;;;;;;6.68;2.63;;;;;;;33.71;23.50;100272.31;6152235;23;20025;-73
2022/09/25 11:02:40;;;;;;;3.17;1.35;;;;;;;33.64;23.46;100255.09;6151983;23;20032;-73
2022/09/25 11:05:17;;;;;;;4.97;3.05;;;;;;;33.80;23.51;100248.56;6152767;23;20018;-72
2022/09/25 11:07:51;;;;;;;2.45;2.13;;;;;;;33.68;23.24;100262.47;6153306;23;20052;-73
2022/09/25 11:10:26;;;;;;;1.55;1.30;;;;;;;33.69;23.34;100266.97;6153315;23;20044;-73
2022/09/25 11:12:55;;;;;;;2.03;1.55;;;;;;;34.00;23.03;100243.56;6152439;23;20025;-75
2022/09/25 11:15:26;;;;;;;1.70;1.60;;;;;;;34.37;22.82;100250.97;6155216;23;20029;-73
2022/09/25 11:17:55;;;;;;;6.15;2.42;;;;;;;34.31;22.45;100263.53;6153900;23;20384;-73
2022/09/25 11:20:28;;;;;;;1.83;1.27;;;;;;;34.40;22.56;100243.44;6154251;23;20025;-73
2022/09/25 11:23:32;;;;;;;7.22;2.80;;;;;;;34.58;22.54;100238.03;6154143;23;20021;-73
2022/09/25 11:26:15;;;;;;;2.65;1.67;;;;;;;34.66;22.58;100248.16;6151407;23;20028;-73
2022/09/25 11:28:56;;;;;;;2.00;1.75;;;;;;;34.72;22.22;100236.03;6153999;23;20036;-73
2022/09/25 11:31:36;;;;;;;2.25;1.50;;;;;;;35.05;22.05;100236.81;6154083;23;20021;-73
2022/09/25 11:34:35;;;;;;;1.45;1.27;;;;;;;35.42;22.11;100229.53;6154217;23;20025;-72
2022/09/25 11:37:16;;;;;;;5.75;1.95;;;;;;;36.09;21.50;100245.41;6152406;23;20025;-72
2022/09/25 11:42:52;;;;;;;9.32;8.73;;;;;;;36.61;20.93;100224.56;6153893;23;20044;-73
2022/09/25 11:45:25;;;;;;;9.27;8.77;;;;;;;36.92;19.63;100218.88;6152053;23;20021;-71
2022/09/25 11:48:00;;;;;;;9.23;8.73;;;;;;;37.26;19.75;100223.06;6152681;23;20029;-73
2022/09/25 11:50:38;;;;;;;9.73;9.13;;;;;;;37.57;19.63;100201.97;6154515;23;20022;-73
2022/09/25 11:53:31;;;;;;;9.35;8.95;;;;;;;38.37;18.89;100207.91;6153146;23;20026;-72
2022/09/25 11:56:33;;;;;;;9.63;9.07;;;;;;;38.93;18.50;100214.69;6151880;23;20029;-72
2022/09/25 11:59:37;;;;;;;9.20;8.70;;;;;;;39.09;17.96;100220.22;6152254;23;20520;-72
2022/09/25 12:02:35;;;;;;;8.82;8.43;;;;;;;39.55;17.62;100207.69;6151774;23;20029;-72
2022/09/25 12:05:24;;;;;;;11.32;10.70;;;;;;;39.33;17.39;100188.25;6153556;23;20022;-73
2022/09/25 12:07:51;;;;;;;;;;;;;;;40.24;17.95;100218.59;6154339;23;20363;-77
2022/09/25 12:10:24;;;;;;;12.00;11.32;;;;;;;40.33;16.84;100213.97;6153676;23;19921;-76
2022/09/25 12:13:16;;;;;;;8.25;7.85;;;;;;;40.75;16.61;100199.25;6153417;23;20040;-76
2022/09/25 12:16:01;;;;;;;10.02;9.43;;;;;;;40.85;16.20;100212.53;6153402;23;20090;-78
2022/09/25 12:18:39;;;;;;;8.00;7.50;;;;;;;41.11;15.99;100201.13;6150747;23;20029;-77